sensor_id;sensor_type;location;lat;lon;timestamp;pressure;altitude;pressure_sealevel;temperature
64470;BMP280;50854;48.538;14.352;2022-07-21T18:39:06;93970.63;;;24.59
64470;BMP280;50854;48.538;14.352;2022-07-21T18:40:08;93976.53;;;24.54
64470;BMP280;50854;48.538;14.352;2022-07-21T18:41:09;93971.66;;;24.52
64470;BMP280;50854;48.538;14.352;2022-07-21T18:42:10;93976.13;;;24.46
64470;BMP280;50854;48.538;14.352;2022-07-21T18:43:11;93976.78;;;24.32
64470;BMP280;50854;48.538;14.352;2022-07-21T18:44:11;93979.72;;;24.23
64470;BMP280;50854;48.538;14.352;2022-07-21T18:45:12;93979.97;;;24.27
64470;BMP280;50854;48.538;14.352;2022-07-21T18:46:12;93981.66;;;24.20
64470;BMP280;50854;48.538;14.352;2022-07-21T18:47:13;93981.31;;;24.14
64470;BMP280;50854;48.538;14.352;2022-07-21T18:48:14;93993.72;;;24.13
64470;BMP280;50854;48.538;14.352;2022-07-21T18:49:14;93988.72;;;23.98
64470;BMP280;50854;48.538;14.352;2022-07-21T18:50:15;93994.03;;;23.82
64470;BMP280;50854;48.538;14.352;2022-07-21T18:51:15;93993.56;;;23.86
64470;BMP280;50854;48.538;14.352;2022-07-21T18:52:16;93997.53;;;23.83
64470;BMP280;50854;48.538;14.352;2022-07-21T18:53:16;94001.53;;;23.80
64470;BMP280;50854;48.538;14.352;2022-07-21T18:54:16;94002.72;;;23.77
64470;BMP280;50854;48.538;14.352;2022-07-21T18:55:17;93994.59;;;23.67
64470;BMP280;50854;48.538;14.352;2022-07-21T18:56:17;94000.63;;;23.52
64470;BMP280;50854;48.538;14.352;2022-07-21T18:57:18;94000.88;;;23.21
64470;BMP280;50854;48.538;14.352;2022-07-21T18:58:19;94005.06;;;22.87
64470;BMP280;50854;48.538;14.352;2022-07-21T18:59:20;94006.97;;;22.84
64470;BMP280;50854;48.538;14.352;2022-07-21T19:00:21;94014.59;;;22.51
64470;BMP280;50854;48.538;14.352;2022-07-21T19:01:21;94019.25;;;22.15
64470;BMP280;50854;48.538;14.352;2022-07-21T19:02:22;94021.25;;;21.82
64470;BMP280;50854;48.538;14.352;2022-07-21T19:03:22;94034.91;;;21.70
64470;BMP280;50854;48.538;14.352;2022-07-21T19:04:23;94030.66;;;21.57
64470;BMP280;50854;48.538;14.352;2022-07-21T19:05:24;94032.03;;;21.47
64470;BMP280;50854;48.538;14.352;2022-07-21T19:06:24;94042.94;;;21.35
64470;BMP280;50854;48.538;14.352;2022-07-21T19:07:25;94037.72;;;21.30
64470;BMP280;50854;48.538;14.352;2022-07-21T19:08:26;94037.47;;;21.26
64470;BMP280;50854;48.538;14.352;2022-07-21T19:09:26;94039.34;;;21.23
64470;BMP280;50854;48.538;14.352;2022-07-21T19:10:27;94037.72;;;21.30
64470;BMP280;50854;48.538;14.352;2022-07-21T19:11:27;94035.31;;;21.24
64470;BMP280;50854;48.538;14.352;2022-07-21T19:12:32;94040.56;;;21.10
64470;BMP280;50854;48.538;14.352;2022-07-21T19:13:32;94029.88;;;21.05
64470;BMP280;50854;48.538;14.352;2022-07-21T19:14:33;94025.41;;;21.00
64470;BMP280;50854;48.538;14.352;2022-07-21T19:15:34;94025.09;;;21.05
64470;BMP280;50854;48.538;14.352;2022-07-21T19:16:34;94028.72;;;20.98
64470;BMP280;50854;48.538;14.352;2022-07-21T19:17:35;94026.84;;;21.01
64470;BMP280;50854;48.538;14.352;2022-07-21T19:18:35;94026.41;;;21.04
64470;BMP280;50854;48.538;14.352;2022-07-21T19:19:36;94044.91;;;21.04
64470;BMP280;50854;48.538;14.352;2022-07-21T19:20:37;94051.47;;;20.89
64470;BMP280;50854;48.538;14.352;2022-07-21T19:21:37;94050.00;;;20.88
64470;BMP280;50854;48.538;14.352;2022-07-21T19:22:38;94052.47;;;20.94
64470;BMP280;50854;48.538;14.352;2022-07-21T19:23:38;94049.72;;;20.94
64470;BMP280;50854;48.538;14.352;2022-07-21T19:24:39;94049.44;;;20.90
64470;BMP280;50854;48.538;14.352;2022-07-21T19:25:40;94036.25;;;20.98
64470;BMP280;50854;48.538;14.352;2022-07-21T19:26:40;94033.50;;;20.98
64470;BMP280;50854;48.538;14.352;2022-07-21T19:27:41;94032.25;;;20.89
64470;BMP280;50854;48.538;14.352;2022-07-21T19:28:42;94019.22;;;20.90
64470;BMP280;50854;48.538;14.352;2022-07-21T19:29:43;94021.81;;;20.87
64470;BMP280;50854;48.538;14.352;2022-07-21T19:30:43;94013.78;;;20.70
64470;BMP280;50854;48.538;14.352;2022-07-21T19:31:44;94018.69;;;20.62
64470;BMP280;50854;48.538;14.352;2022-07-21T19:32:44;94015.66;;;20.58
64470;BMP280;50854;48.538;14.352;2022-07-21T19:33:45;94015.53;;;20.66
64470;BMP280;50854;48.538;14.352;2022-07-21T19:34:45;94015.19;;;20.71
64470;BMP280;50854;48.538;14.352;2022-07-21T19:35:46;94008.56;;;20.74
64470;BMP280;50854;48.538;14.352;2022-07-21T19:36:47;94019.13;;;20.59
64470;BMP280;50854;48.538;14.352;2022-07-21T19:37:47;94018.88;;;20.45
64470;BMP280;50854;48.538;14.352;2022-07-21T19:38:48;94018.44;;;20.39
64470;BMP280;50854;48.538;14.352;2022-07-21T19:39:48;94013.25;;;20.24
64470;BMP280;50854;48.538;14.352;2022-07-21T19:40:49;94016.69;;;20.24
64470;BMP280;50854;48.538;14.352;2022-07-21T19:41:50;94012.22;;;20.09
64470;BMP280;50854;48.538;14.352;2022-07-21T19:42:50;94015.25;;;20.04
64470;BMP280;50854;48.538;14.352;2022-07-21T19:43:51;94016.69;;;20.05
64470;BMP280;50854;48.538;14.352;2022-07-21T19:44:52;94025.94;;;20.09
64470;BMP280;50854;48.538;14.352;2022-07-21T19:45:53;94031.44;;;20.09
64470;BMP280;50854;48.538;14.352;2022-07-21T19:46:53;94018.31;;;19.98
64470;BMP280;50854;48.538;14.352;2022-07-21T19:47:53;94019.75;;;20.09
64470;BMP280;50854;48.538;14.352;2022-07-21T19:48:54;94024.50;;;20.08
64470;BMP280;50854;48.538;14.352;2022-07-21T19:49:55;94019.19;;;20.01
64470;BMP280;50854;48.538;14.352;2022-07-21T19:50:56;94018.44;;;20.10
64470;BMP280;50854;48.538;14.352;2022-07-21T19:51:56;94016.13;;;20.16
64470;BMP280;50854;48.538;14.352;2022-07-21T19:52:57;94017.59;;;20.17
64470;BMP280;50854;48.538;14.352;2022-07-21T19:53:57;94020.91;;;20.15
64470;BMP280;50854;48.538;14.352;2022-07-21T19:54:58;94018.44;;;20.10
64470;BMP280;50854;48.538;14.352;2022-07-21T19:55:58;94020.63;;;20.21
64470;BMP280;50854;48.538;14.352;2022-07-21T19:56:59;94017.59;;;20.27
64470;BMP280;50854;48.538;14.352;2022-07-21T19:57:59;94024.81;;;20.32
64470;BMP280;50854;48.538;14.352;2022-07-21T19:58:59;94020.47;;;20.29
64470;BMP280;50854;48.538;14.352;2022-07-21T20:00:04;94023.81;;;20.27
64470;BMP280;50854;48.538;14.352;2022-07-21T20:01:05;94024.81;;;20.32
64470;BMP280;50854;48.538;14.352;2022-07-21T20:02:05;94033.06;;;20.32
64470;BMP280;50854;48.538;14.352;2022-07-21T20:03:06;94025.66;;;20.34
64470;BMP280;50854;48.538;14.352;2022-07-21T20:04:07;94027.69;;;20.34
64470;BMP280;50854;48.538;14.352;2022-07-21T20:05:08;94027.53;;;20.41
64470;BMP280;50854;48.538;14.352;2022-07-21T20:06:08;94035.19;;;20.33
64470;BMP280;50854;48.538;14.352;2022-07-21T20:07:09;94035.50;;;20.37
64470;BMP280;50854;48.538;14.352;2022-07-21T20:08:13;94032.31;;;20.41
64470;BMP280;50854;48.538;14.352;2022-07-21T20:09:14;94037.94;;;20.43
64470;BMP280;50854;48.538;14.352;2022-07-21T20:10:14;94041.25;;;20.41
64470;BMP280;50854;48.538;14.352;2022-07-21T20:11:14;94041.53;;;20.45
64470;BMP280;50854;48.538;14.352;2022-07-21T20:12:15;94041.41;;;20.43
64470;BMP280;50854;48.538;14.352;2022-07-21T20:13:15;94046.34;;;20.45
64470;BMP280;50854;48.538;14.352;2022-07-21T20:14:16;94043.88;;;20.49
64470;BMP280;50854;48.538;14.352;2022-07-21T20:15:16;94042.84;;;20.54
64470;BMP280;50854;48.538;14.352;2022-07-21T20:16:17;94044.16;;;20.53
64470;BMP280;50854;48.538;14.352;2022-07-21T20:17:17;94048.22;;;20.52
64470;BMP280;50854;48.538;14.352;2022-07-21T20:18:18;94041.56;;;20.26
64470;BMP280;50854;48.538;14.352;2022-07-21T20:19:18;94048.78;;;20.22
64470;BMP280;50854;48.538;14.352;2022-07-21T20:20:19;94057.31;;;20.16
64470;BMP280;50854;48.538;14.352;2022-07-21T20:21:19;94057.31;;;20.16
64470;BMP280;50854;48.538;14.352;2022-07-21T20:22:20;94059.47;;;19.98
64470;BMP280;50854;48.538;14.352;2022-07-21T20:23:20;94071.13;;;19.99
64470;BMP280;50854;48.538;14.352;2022-07-21T20:24:21;94067.69;;;20.08
64470;BMP280;50854;48.538;14.352;2022-07-21T20:25:22;94063.94;;;20.13
64470;BMP280;50854;48.538;14.352;2022-07-21T20:26:22;94070.03;;;20.21
64470;BMP280;50854;48.538;14.352;2022-07-21T20:27:24;94079.81;;;20.24
64470;BMP280;50854;48.538;14.352;2022-07-21T20:28:24;94069.88;;;20.29
64470;BMP280;50854;48.538;14.352;2022-07-21T20:29:25;94068.72;;;20.22
64470;BMP280;50854;48.538;14.352;2022-07-21T20:30:25;94063.34;;;20.24
64470;BMP280;50854;48.538;14.352;2022-07-21T20:31:26;94061.63;;;20.29
64470;BMP280;50854;48.538;14.352;2022-07-21T20:32:26;94056.75;;;20.27
64470;BMP280;50854;48.538;14.352;2022-07-21T20:33:26;94059.19;;;20.33
64470;BMP280;50854;48.538;14.352;2022-07-21T20:34:27;94064.25;;;20.36
64470;BMP280;50854;48.538;14.352;2022-07-21T20:35:27;94065.25;;;20.41
64470;BMP280;50854;48.538;14.352;2022-07-21T20:36:28;94064.22;;;20.46
64470;BMP280;50854;48.538;14.352;2022-07-21T20:37:28;94072.47;;;20.46
64470;BMP280;50854;48.538;14.352;2022-07-21T20:38:28;94070.91;;;20.43
64470;BMP280;50854;48.538;14.352;2022-07-21T20:39:29;94072.75;;;20.50
64470;BMP280;50854;48.538;14.352;2022-07-21T20:40:29;94081.31;;;20.44
64470;BMP280;50854;48.538;14.352;2022-07-21T20:41:30;94080.88;;;20.48
64470;BMP280;50854;48.538;14.352;2022-07-21T20:42:31;94080.69;;;20.46
64470;BMP280;50854;48.538;14.352;2022-07-21T20:43:31;94082.88;;;20.38
64470;BMP280;50854;48.538;14.352;2022-07-21T20:44:32;94089.81;;;20.39
64470;BMP280;50854;48.538;14.352;2022-07-21T20:45:32;94082.47;;;20.32
64470;BMP280;50854;48.538;14.352;2022-07-21T20:46:33;94084.19;;;20.27
64470;BMP280;50854;48.538;14.352;2022-07-21T20:47:33;94086.22;;;20.27
64470;BMP280;50854;48.538;14.352;2022-07-21T20:48:34;94085.88;;;20.03
64470;BMP280;50854;48.538;14.352;2022-07-21T20:49:36;94083.81;;;19.94
64470;BMP280;50854;48.538;14.352;2022-07-21T20:50:36;94091.97;;;20.02
64470;BMP280;50854;48.538;14.352;2022-07-21T20:51:37;94089.19;;;19.92
64470;BMP280;50854;48.538;14.352;2022-07-21T20:52:38;94089.56;;;19.69
64470;BMP280;50854;48.538;14.352;2022-07-21T20:53:39;94091.72;;;19.71
64470;BMP280;50854;48.538;14.352;2022-07-21T20:54:40;94087.13;;;19.83
64470;BMP280;50854;48.538;14.352;2022-07-21T20:55:40;94090.47;;;19.91
64470;BMP280;50854;48.538;14.352;2022-07-21T20:56:41;94096.53;;;19.90
64470;BMP280;50854;48.538;14.352;2022-07-21T20:57:41;94099.44;;;19.92
64470;BMP280;50854;48.538;14.352;2022-07-21T20:58:42;94098.41;;;19.87
64470;BMP280;50854;48.538;14.352;2022-07-21T20:59:43;94100.44;;;19.96
64470;BMP280;50854;48.538;14.352;2022-07-21T21:00:44;94098.16;;;20.02
64470;BMP280;50854;48.538;14.352;2022-07-21T21:01:44;94103.22;;;20.06
64470;BMP280;50854;48.538;14.352;2022-07-21T21:02:44;94099.19;;;20.07
64470;BMP280;50854;48.538;14.352;2022-07-21T21:03:45;94103.22;;;20.06
64470;BMP280;50854;48.538;14.352;2022-07-21T21:04:45;94092.69;;;20.02
64470;BMP280;50854;48.538;14.352;2022-07-21T21:05:46;94097.44;;;20.02
64470;BMP280;50854;48.538;14.352;2022-07-21T21:06:46;94091.06;;;19.99
64470;BMP280;50854;48.538;14.352;2022-07-21T21:07:47;94093.66;;;19.97
64470;BMP280;50854;48.538;14.352;2022-07-21T21:08:47;94091.97;;;20.02
64470;BMP280;50854;48.538;14.352;2022-07-21T21:09:49;94096.25;;;19.95
64470;BMP280;50854;48.538;14.352;2022-07-21T21:10:49;94098.00;;;20.00
64470;BMP280;50854;48.538;14.352;2022-07-21T21:11:50;94094.22;;;19.86
64470;BMP280;50854;48.538;14.352;2022-07-21T21:12:50;94100.69;;;19.81
64470;BMP280;50854;48.538;14.352;2022-07-21T21:13:50;94106.50;;;19.85
64470;BMP280;50854;48.538;14.352;2022-07-21T21:14:51;94101.16;;;19.87
64470;BMP280;50854;48.538;14.352;2022-07-21T21:15:51;94100.56;;;19.89
64470;BMP280;50854;48.538;14.352;2022-07-21T21:16:52;94099.28;;;19.90
64470;BMP280;50854;48.538;14.352;2022-07-21T21:17:52;94092.44;;;19.71
64470;BMP280;50854;48.538;14.352;2022-07-21T21:18:53;94101.50;;;19.64
64470;BMP280;50854;48.538;14.352;2022-07-21T21:19:53;94097.47;;;19.65
64470;BMP280;50854;48.538;14.352;2022-07-21T21:20:54;94103.41;;;19.71
64470;BMP280;50854;48.538;14.352;2022-07-21T21:21:54;94097.78;;;19.79
64470;BMP280;50854;48.538;14.352;2022-07-21T21:22:54;94098.41;;;19.87
64470;BMP280;50854;48.538;14.352;2022-07-21T21:23:55;94093.06;;;19.89
64470;BMP280;50854;48.538;14.352;2022-07-21T21:24:55;94083.13;;;19.94
64470;BMP280;50854;48.538;14.352;2022-07-21T21:25:56;94080.69;;;19.98
64470;BMP280;50854;48.538;14.352;2022-07-21T21:26:56;94078.50;;;19.96
64470;BMP280;50854;48.538;14.352;2022-07-21T21:27:56;94077.34;;;19.99
64470;BMP280;50854;48.538;14.352;2022-07-21T21:28:57;94074.16;;;19.93
64470;BMP280;50854;48.538;14.352;2022-07-21T21:29:57;94072.41;;;19.88
64470;BMP280;50854;48.538;14.352;2022-07-21T21:30:58;94063.00;;;19.81
64470;BMP280;50854;48.538;14.352;2022-07-21T21:31:58;94065.63;;;19.79
64470;BMP280;50854;48.538;14.352;2022-07-21T21:32:59;94049.59;;;19.76
64470;BMP280;50854;48.538;14.352;2022-07-21T21:33:59;94051.44;;;19.73
64470;BMP280;50854;48.538;14.352;2022-07-21T21:35:00;94053.34;;;19.71
64470;BMP280;50854;48.538;14.352;2022-07-21T21:36:00;94051.88;;;19.70
64470;BMP280;50854;48.538;14.352;2022-07-21T21:37:00;94052.03;;;19.72
64470;BMP280;50854;48.538;14.352;2022-07-21T21:38:01;94055.47;;;19.72
64470;BMP280;50854;48.538;14.352;2022-07-21T21:39:02;94051.88;;;19.70
64470;BMP280;50854;48.538;14.352;2022-07-21T21:40:04;94050.72;;;19.73
64470;BMP280;50854;48.538;14.352;2022-07-21T21:41:05;94046.41;;;19.70
64470;BMP280;50854;48.538;14.352;2022-07-21T21:42:06;94042.94;;;19.69
64470;BMP280;50854;48.538;14.352;2022-07-21T21:43:06;94042.38;;;19.71
64470;BMP280;50854;48.538;14.352;2022-07-21T21:44:07;94034.88;;;19.71
64470;BMP280;50854;48.538;14.352;2022-07-21T21:45:08;94035.16;;;19.75
64470;BMP280;50854;48.538;14.352;2022-07-21T21:46:09;94033.44;;;19.80
64470;BMP280;50854;48.538;14.352;2022-07-21T21:47:09;94032.53;;;19.77
64470;BMP280;50854;48.538;14.352;2022-07-21T21:48:11;94029.69;;;19.75
64470;BMP280;50854;48.538;14.352;2022-07-21T21:49:11;94025.66;;;19.76
64470;BMP280;50854;48.538;14.352;2022-07-21T21:50:11;94035.25;;;19.68
64470;BMP280;50854;48.538;14.352;2022-07-21T21:51:12;94023.03;;;19.69
64470;BMP280;50854;48.538;14.352;2022-07-21T21:52:12;94026.59;;;19.62
64470;BMP280;50854;48.538;14.352;2022-07-21T21:53:13;94027.03;;;19.68
64470;BMP280;50854;48.538;14.352;2022-07-21T21:54:13;94030.78;;;19.63
64470;BMP280;50854;48.538;14.352;2022-07-21T21:55:14;94030.91;;;19.55
64470;BMP280;50854;48.538;14.352;2022-07-21T21:56:14;94031.94;;;19.60
64470;BMP280;50854;48.538;14.352;2022-07-21T21:57:15;94030.19;;;19.55
64470;BMP280;50854;48.538;14.352;2022-07-21T21:58:15;94036.09;;;19.51
64470;BMP280;50854;48.538;14.352;2022-07-21T21:59:15;94040.53;;;19.46
64470;BMP280;50854;48.538;14.352;2022-07-21T22:00:17;94041.09;;;19.35
64470;BMP280;50854;48.538;14.352;2022-07-21T22:01:17;94038.25;;;19.43
64470;BMP280;50854;48.538;14.352;2022-07-21T22:02:18;94037.50;;;19.42
64470;BMP280;50854;48.538;14.352;2022-07-21T22:03:18;94041.88;;;19.45
64470;BMP280;50854;48.538;14.352;2022-07-21T22:04:19;94040.16;;;19.50
64470;BMP280;50854;48.538;14.352;2022-07-21T22:05:19;94046.63;;;19.55
64470;BMP280;50854;48.538;14.352;2022-07-21T22:06:20;94046.78;;;19.57
64470;BMP280;50854;48.538;14.352;2022-07-21T22:07:20;94051.13;;;19.60
64470;BMP280;50854;48.538;14.352;2022-07-21T22:08:20;94052.44;;;19.59
64470;BMP280;50854;48.538;14.352;2022-07-21T22:09:21;94045.94;;;19.64
64470;BMP280;50854;48.538;14.352;2022-07-21T22:10:21;94046.22;;;19.68
64470;BMP280;50854;48.538;14.352;2022-07-21T22:11:22;94048.84;;;19.66
64470;BMP280;50854;48.538;14.352;2022-07-21T22:12:22;94047.97;;;19.63
64470;BMP280;50854;48.538;14.352;2022-07-21T22:13:23;94044.50;;;19.63
64470;BMP280;50854;48.538;14.352;2022-07-21T22:14:23;94055.63;;;19.65
64470;BMP280;50854;48.538;14.352;2022-07-21T22:15:23;94046.09;;;19.66
64470;BMP280;50854;48.538;14.352;2022-07-21T22:16:24;94041.56;;;19.51
64470;BMP280;50854;48.538;14.352;2022-07-21T22:17:25;94043.88;;;19.45
64470;BMP280;50854;48.538;14.352;2022-07-21T22:18:25;94035.38;;;19.50
64470;BMP280;50854;48.538;14.352;2022-07-21T22:19:25;94035.66;;;19.55
64470;BMP280;50854;48.538;14.352;2022-07-21T22:20:26;94034.53;;;19.58
64470;BMP280;50854;48.538;14.352;2022-07-21T22:21:26;94027.78;;;19.59
64470;BMP280;50854;48.538;14.352;2022-07-21T22:22:27;94026.44;;;19.60
64470;BMP280;50854;48.538;14.352;2022-07-21T22:23:32;94029.19;;;19.60
64470;BMP280;50854;48.538;14.352;2022-07-21T22:24:32;94029.78;;;19.58
64470;BMP280;50854;48.538;14.352;2022-07-21T22:25:33;94022.69;;;19.55
64470;BMP280;50854;48.538;14.352;2022-07-21T22:26:33;94026.03;;;19.54
64470;BMP280;50854;48.538;14.352;2022-07-21T22:27:35;94025.03;;;19.59
64470;BMP280;50854;48.538;14.352;2022-07-21T22:28:36;94029.19;;;19.60
64470;BMP280;50854;48.538;14.352;2022-07-21T22:29:36;94024.59;;;19.62
64470;BMP280;50854;48.538;14.352;2022-07-21T22:30:37;94026.31;;;19.58
64470;BMP280;50854;48.538;14.352;2022-07-21T22:31:37;94030.53;;;19.59
64470;BMP280;50854;48.538;14.352;2022-07-21T22:32:38;94024.84;;;19.57
64470;BMP280;50854;48.538;14.352;2022-07-21T22:33:38;94019.09;;;19.62
64470;BMP280;50854;48.538;14.352;2022-07-21T22:34:38;94022.72;;;19.65
64470;BMP280;50854;48.538;14.352;2022-07-21T22:35:40;94030.50;;;19.68
64470;BMP280;50854;48.538;14.352;2022-07-21T22:36:40;94016.22;;;19.60
64470;BMP280;50854;48.538;14.352;2022-07-21T22:37:41;94019.63;;;19.51
64470;BMP280;50854;48.538;14.352;2022-07-21T22:38:41;94021.50;;;19.39
64470;BMP280;50854;48.538;14.352;2022-07-21T22:39:42;94025.38;;;19.36
64470;BMP280;50854;48.538;14.352;2022-07-21T22:40:42;94027.91;;;19.24
64470;BMP280;50854;48.538;14.352;2022-07-21T22:41:42;94027.75;;;19.12
64470;BMP280;50854;48.538;14.352;2022-07-21T22:42:43;94027.28;;;19.06
64470;BMP280;50854;48.538;14.352;2022-07-21T22:43:43;94018.63;;;19.10
64470;BMP280;50854;48.538;14.352;2022-07-21T22:44:44;94017.59;;;19.05
64470;BMP280;50854;48.538;14.352;2022-07-21T22:45:44;94023.41;;;19.09
64470;BMP280;50854;48.538;14.352;2022-07-21T22:46:45;94022.81;;;19.11
64470;BMP280;50854;48.538;14.352;2022-07-21T22:47:45;94022.97;;;19.13
64470;BMP280;50854;48.538;14.352;2022-07-21T22:48:45;94017.63;;;19.15
64470;BMP280;50854;48.538;14.352;2022-07-21T22:49:46;94022.06;;;19.10
64470;BMP280;50854;48.538;14.352;2022-07-21T22:50:46;94023.41;;;19.09
64470;BMP280;50854;48.538;14.352;2022-07-21T22:51:47;94025.53;;;19.11
64470;BMP280;50854;48.538;14.352;2022-07-21T22:52:47;94026.84;;;19.10
64470;BMP280;50854;48.538;14.352;2022-07-21T22:53:48;94024.94;;;19.03
64470;BMP280;50854;48.538;14.352;2022-07-21T22:54:48;94026.25;;;19.02
64470;BMP280;50854;48.538;14.352;2022-07-21T22:55:49;94024.75;;;19.01
64470;BMP280;50854;48.538;14.352;2022-07-21T22:56:50;94033.88;;;19.03
64470;BMP280;50854;48.538;14.352;2022-07-21T22:57:50;94034.47;;;19.02
64470;BMP280;50854;48.538;14.352;2022-07-21T22:58:51;94027.44;;;18.81
64470;BMP280;50854;48.538;14.352;2022-07-21T22:59:51;94032.78;;;18.89
64470;BMP280;50854;48.538;14.352;2022-07-21T23:00:52;94023.84;;;18.89
64470;BMP280;50854;48.538;14.352;2022-07-21T23:01:52;94026.75;;;18.91
64470;BMP280;50854;48.538;14.352;2022-07-21T23:02:53;94030.91;;;18.82
64470;BMP280;50854;48.538;14.352;2022-07-21T23:03:54;94031.81;;;18.67
64470;BMP280;50854;48.538;14.352;2022-07-21T23:04:54;94024.63;;;18.72
64470;BMP280;50854;48.538;14.352;2022-07-21T23:05:55;94025.34;;;18.72
64470;BMP280;50854;48.538;14.352;2022-07-21T23:06:55;94028.41;;;18.76
64470;BMP280;50854;48.538;14.352;2022-07-21T23:07:57;94025.69;;;18.76
64470;BMP280;50854;48.538;14.352;2022-07-21T23:08:57;94025.34;;;18.72
64470;BMP280;50854;48.538;14.352;2022-07-21T23:09:58;94026.47;;;18.69
64470;BMP280;50854;48.538;14.352;2022-07-21T23:10:58;94023.59;;;18.67
64470;BMP280;50854;48.538;14.352;2022-07-21T23:11:59;94036.56;;;18.67
64470;BMP280;50854;48.538;14.352;2022-07-21T23:12:59;94031.56;;;18.56
64470;BMP280;50854;48.538;14.352;2022-07-21T23:14:00;94032.38;;;18.48
64470;BMP280;50854;48.538;14.352;2022-07-21T23:15:00;94027.63;;;18.49
64470;BMP280;50854;48.538;14.352;2022-07-21T23:16:00;94036.72;;;18.52
64470;BMP280;50854;48.538;14.352;2022-07-21T23:17:01;94028.03;;;18.45
64470;BMP280;50854;48.538;14.352;2022-07-21T23:18:02;94035.84;;;18.49
64470;BMP280;50854;48.538;14.352;2022-07-21T23:19:02;94033.91;;;18.42
64470;BMP280;50854;48.538;14.352;2022-07-21T23:20:07;94040.13;;;18.42
64470;BMP280;50854;48.538;14.352;2022-07-21T23:21:08;94031.69;;;18.31
64470;BMP280;50854;48.538;14.352;2022-07-21T23:22:08;94041.72;;;18.28
64470;BMP280;50854;48.538;14.352;2022-07-21T23:23:09;94031.81;;;18.33
64470;BMP280;50854;48.538;14.352;2022-07-21T23:24:09;94034.06;;;18.27
64470;BMP280;50854;48.538;14.352;2022-07-21T23:25:10;94031.53;;;18.29
64470;BMP280;50854;48.538;14.352;2022-07-21T23:26:10;94035.84;;;18.32
64470;BMP280;50854;48.538;14.352;2022-07-21T23:27:10;94038.25;;;18.28
64470;BMP280;50854;48.538;14.352;2022-07-21T23:28:11;94037.00;;;18.29
64470;BMP280;50854;48.538;14.352;2022-07-21T23:29:11;94034.06;;;18.27
64470;BMP280;50854;48.538;14.352;2022-07-21T23:30:12;94041.34;;;18.14
64470;BMP280;50854;48.538;14.352;2022-07-21T23:31:13;94033.25;;;18.16
64470;BMP280;50854;48.538;14.352;2022-07-21T23:32:13;94032.91;;;18.20
64470;BMP280;50854;48.538;14.352;2022-07-21T23:33:14;94036.81;;;18.27
64470;BMP280;50854;48.538;14.352;2022-07-21T23:34:14;94046.34;;;18.26
64470;BMP280;50854;48.538;14.352;2022-07-21T23:35:15;94049.78;;;18.09
64470;BMP280;50854;48.538;14.352;2022-07-21T23:36:15;94038.28;;;18.10
64470;BMP280;50854;48.538;14.352;2022-07-21T23:37:16;94044.31;;;18.09
64470;BMP280;50854;48.538;14.352;2022-07-21T23:38:17;94042.47;;;18.11
64470;BMP280;50854;48.538;14.352;2022-07-21T23:39:17;94044.13;;;17.90
64470;BMP280;50854;48.538;14.352;2022-07-21T23:40:17;94044.84;;;17.90
64470;BMP280;50854;48.538;14.352;2022-07-21T23:41:18;94044.78;;;17.98
64470;BMP280;50854;48.538;14.352;2022-07-21T23:42:18;94041.63;;;18.01
64470;BMP280;50854;48.538;14.352;2022-07-21T23:43:19;94048.41;;;18.00
64470;BMP280;50854;48.538;14.352;2022-07-21T23:44:19;94041.63;;;18.01
64470;BMP280;50854;48.538;14.352;2022-07-21T23:45:19;94045.50;;;17.98
64470;BMP280;50854;48.538;14.352;2022-07-21T23:46:20;94045.25;;;18.04
64470;BMP280;50854;48.538;14.352;2022-07-21T23:47:20;94045.16;;;17.94
64470;BMP280;50854;48.538;14.352;2022-07-21T23:48:21;94039.28;;;17.80
64470;BMP280;50854;48.538;14.352;2022-07-21T23:49:21;94051.03;;;17.66
64470;BMP280;50854;48.538;14.352;2022-07-21T23:50:22;94043.50;;;17.57
64470;BMP280;50854;48.538;14.352;2022-07-21T23:51:23;94050.00;;;17.61
64470;BMP280;50854;48.538;14.352;2022-07-21T23:52:23;94043.16;;;17.53
64470;BMP280;50854;48.538;14.352;2022-07-21T23:53:25;94049.59;;;17.40
64470;BMP280;50854;48.538;14.352;2022-07-21T23:54:25;94049.41;;;17.45
64470;BMP280;50854;48.538;14.352;2022-07-21T23:55:26;94049.19;;;17.51
64470;BMP280;50854;48.538;14.352;2022-07-21T23:56:26;94047.50;;;17.56
64470;BMP280;50854;48.538;14.352;2022-07-21T23:57:26;94043.25;;;17.62
64470;BMP280;50854;48.538;14.352;2022-07-21T23:58:27;94042.94;;;17.58
64470;BMP280;50854;48.538;14.352;2022-07-21T23:59:27;94043.59;;;17.66
